createdAt,value
2023-02-19T00:01:55.809Z,80.48
2023-02-19T00:04:24.166Z,80.55
2023-02-19T00:06:52.462Z,80.69
2023-02-19T00:09:21.749Z,80.76
2023-02-19T00:11:50.163Z,80.64
2023-02-19T00:14:21.059Z,80.92
2023-02-19T00:16:49.949Z,80.71
2023-02-19T00:19:20.020Z,80.87
2023-02-19T00:21:51.027Z,80.52
2023-02-19T00:24:20.392Z,80.69
2023-02-19T00:26:49.251Z,80.77
2023-02-19T00:29:20.606Z,80.82
2023-02-19T00:31:49.237Z,81.07
2023-02-19T00:34:17.697Z,81.10
2023-02-19T00:36:45.911Z,81.08
2023-02-19T00:39:16.573Z,80.98
2023-02-19T00:41:46.636Z,81.14
2023-02-19T00:44:16.216Z,81.12
2023-02-19T00:46:47.616Z,81.23
2023-02-19T00:49:21.902Z,81.21
2023-02-19T00:51:52.224Z,81.08
2023-02-19T00:54:22.780Z,81.29
2023-02-19T00:56:51.543Z,81.16
2023-02-19T00:59:20.191Z,81.12
2023-02-19T01:01:49.933Z,81.37
2023-02-19T01:04:18.750Z,81.31
2023-02-19T01:06:48.979Z,81.41
2023-02-19T01:09:17.508Z,81.48
2023-02-19T01:11:46.215Z,81.45
2023-02-19T01:14:14.706Z,81.40
2023-02-19T01:16:42.984Z,81.64
2023-02-19T01:19:11.282Z,81.64
2023-02-19T01:21:39.863Z,81.65
2023-02-19T01:24:08.103Z,81.71
2023-02-19T01:26:36.518Z,81.50
2023-02-19T01:29:05.114Z,81.71
2023-02-19T01:31:33.972Z,81.79
2023-02-19T01:34:04.530Z,81.83
2023-02-19T01:36:34.428Z,82.11
2023-02-19T01:39:05.294Z,82.07
2023-02-19T01:41:39.667Z,82.19
2023-02-19T01:44:27.796Z,82.28
2023-02-19T01:46:58.919Z,82.25
2023-02-19T01:49:35.161Z,82.36
2023-02-19T01:52:18.886Z,82.43
2023-02-19T01:54:48.986Z,82.47
2023-02-19T01:57:22.244Z,82.73
2023-02-19T01:59:55.308Z,82.65
2023-02-19T02:02:25.221Z,82.73
2023-02-19T02:04:53.667Z,82.74
2023-02-19T02:07:41.168Z,82.80
2023-02-19T02:10:21.530Z,83.32
2023-02-19T02:12:51.826Z,83.02
2023-02-19T02:15:20.096Z,83.35
2023-02-19T02:18:02.821Z,83.21
2023-02-19T02:21:03.673Z,83.28
2023-02-19T02:24:00.193Z,83.45
2023-02-19T02:27:04.816Z,83.45
2023-02-19T02:29:52.410Z,83.46
2023-02-19T02:32:27.147Z,83.35
2023-02-19T02:35:04.407Z,83.32
2023-02-19T02:37:37.465Z,83.39
2023-02-19T02:40:08.570Z,83.20
2023-02-19T02:42:39.736Z,83.38
2023-02-19T02:45:36.974Z,83.29
2023-02-19T02:48:27.326Z,83.44
2023-02-19T02:50:58.585Z,83.47
2023-02-19T02:53:49.046Z,83.38
2023-02-19T02:56:19.513Z,83.59
2023-02-19T02:58:50.059Z,83.63
2023-02-19T03:02:12.706Z,83.77
2023-02-19T03:05:25.563Z,83.89
2023-02-19T03:08:21.540Z,83.99
2023-02-19T03:11:25.336Z,83.83
2023-02-19T03:14:18.306Z,84.05
2023-02-19T03:17:10.021Z,83.89
2023-02-19T03:19:43.198Z,84.09
2023-02-19T03:22:16.722Z,84.11
2023-02-19T03:25:13.002Z,84.09
2023-02-19T03:27:44.906Z,83.90
2023-02-19T03:30:18.579Z,84.03
2023-02-19T03:32:54.625Z,83.97
2023-02-19T03:35:27.122Z,83.56
2023-02-19T03:38:19.053Z,83.61
2023-02-19T03:41:01.091Z,83.55
2023-02-19T03:43:40.639Z,83.55
2023-02-19T03:46:17.601Z,83.27
2023-02-19T03:49:02.074Z,82.89
2023-02-19T03:51:42.796Z,82.92
2023-02-19T03:54:36.599Z,83.00
2023-02-19T03:57:15.174Z,82.86
2023-02-19T03:59:55.790Z,82.60
2023-02-19T04:02:33.073Z,82.65
2023-02-19T04:05:14.021Z,82.26
2023-02-19T04:07:48.038Z,82.47
2023-02-19T04:10:19.144Z,82.42
2023-02-19T04:13:01.881Z,82.48
2023-02-19T04:15:33.753Z,82.27
2023-02-19T04:18:14.604Z,82.14
2023-02-19T04:20:45.297Z,82.27
2023-02-19T04:23:16.411Z,82.12
2023-02-19T04:25:47.342Z,82.09
2023-02-19T04:28:17.428Z,82.41
2023-02-19T04:30:45.808Z,82.55
2023-02-19T04:33:14.177Z,82.42
2023-02-19T04:35:42.414Z,82.57
2023-02-19T04:38:10.632Z,82.85
2023-02-19T04:40:38.848Z,82.60
2023-02-19T04:43:07.046Z,82.61
2023-02-19T04:45:38.041Z,82.50
2023-02-19T04:48:06.476Z,82.57
2023-02-19T04:50:34.780Z,82.63
2023-02-19T04:53:02.870Z,82.60
2023-02-19T04:55:31.041Z,82.31
2023-02-19T04:58:00.323Z,82.47
2023-02-19T05:00:28.551Z,82.40
2023-02-19T05:02:56.680Z,82.43
2023-02-19T05:05:25.126Z,82.40
2023-02-19T05:07:53.263Z,82.54
2023-02-19T05:10:21.477Z,82.43
2023-02-19T05:12:49.688Z,82.33
2023-02-19T05:15:18.065Z,82.17
2023-02-19T05:17:46.552Z,82.29
2023-02-19T05:20:15.078Z,82.37
2023-02-19T05:22:43.226Z,82.41
2023-02-19T05:25:11.327Z,82.48
2023-02-19T05:27:40.240Z,82.41
2023-02-19T05:30:09.158Z,82.58
2023-02-19T05:32:38.521Z,82.45
2023-02-19T05:35:07.139Z,82.56
2023-02-19T05:37:35.272Z,82.67
2023-02-19T05:40:03.930Z,82.60
2023-02-19T05:42:32.397Z,82.75
2023-02-19T05:45:00.615Z,82.77
2023-02-19T05:47:29.235Z,83.21
2023-02-19T05:49:57.384Z,82.81
2023-02-19T05:52:25.853Z,83.02
2023-02-19T05:54:54.053Z,83.03
2023-02-19T05:57:22.229Z,82.97
2023-02-19T05:59:50.412Z,83.15
2023-02-19T06:02:19.005Z,83.06
2023-02-19T06:04:47.222Z,83.18
2023-02-19T06:07:15.505Z,83.34
2023-02-19T06:09:43.705Z,83.21
2023-02-19T06:12:11.890Z,83.30
2023-02-19T06:14:40.130Z,83.19
2023-02-19T06:17:08.388Z,83.32
2023-02-19T06:19:36.566Z,83.30
2023-02-19T06:22:04.781Z,83.44
2023-02-19T06:24:33.502Z,83.51
2023-02-19T06:27:01.736Z,83.47
2023-02-19T06:29:29.904Z,83.50
2023-02-19T06:31:58.384Z,83.57
2023-02-19T06:34:27.227Z,83.66
2023-02-19T06:36:57.672Z,83.68
2023-02-19T06:39:27.171Z,83.60
2023-02-19T06:41:56.999Z,83.65
2023-02-19T06:44:29.207Z,83.68
2023-02-19T06:46:57.664Z,83.53
2023-02-19T06:49:26.016Z,83.35
2023-02-19T06:51:54.386Z,83.18
2023-02-19T06:54:22.669Z,83.38
2023-02-19T06:56:50.770Z,83.19
2023-02-19T06:59:19.027Z,83.14
2023-02-19T07:01:47.455Z,83.10
2023-02-19T07:04:15.992Z,82.88
2023-02-19T07:06:44.203Z,83.12
2023-02-19T07:09:12.410Z,82.89
2023-02-19T07:11:40.890Z,82.58
2023-02-19T07:14:15.797Z,82.87
2023-02-19T07:16:44.667Z,82.58
2023-02-19T07:19:13.852Z,82.82
2023-02-19T07:21:43.590Z,82.83
2023-02-19T07:24:12.558Z,82.70
2023-02-19T07:26:41.756Z,82.71
2023-02-19T07:29:10.624Z,82.56
2023-02-19T07:31:39.408Z,82.56
2023-02-19T07:34:07.789Z,82.58
2023-02-19T07:36:36.542Z,82.97
2023-02-19T07:39:05.461Z,82.72
2023-02-19T07:41:33.794Z,82.91
2023-02-19T07:44:02.226Z,82.59
2023-02-19T07:46:32.304Z,82.29
2023-02-19T07:49:00.650Z,82.80
2023-02-19T07:51:29.124Z,82.95
2023-02-19T07:53:57.784Z,82.87
2023-02-19T07:56:26.124Z,82.77
2023-02-19T07:58:54.436Z,82.60
2023-02-19T08:01:42.998Z,82.19
2023-02-19T08:04:13.631Z,82.05
2023-02-19T08:06:42.534Z,82.27
2023-02-19T08:09:11.256Z,82.03
2023-02-19T08:11:57.872Z,82.26
2023-02-19T08:14:27.269Z,81.82
2023-02-19T08:16:55.858Z,81.34
2023-02-19T08:19:24.419Z,81.78
2023-02-19T08:21:53.731Z,81.59
2023-02-19T08:24:22.347Z,81.73
2023-02-19T08:26:50.596Z,80.54
2023-02-19T08:29:18.893Z,81.01
2023-02-19T08:31:47.271Z,80.61
2023-02-19T08:34:16.947Z,80.41
2023-02-19T08:36:45.274Z,80.76
2023-02-19T08:39:13.637Z,80.63
2023-02-19T08:41:41.937Z,80.29
2023-02-19T08:44:10.158Z,80.45
2023-02-19T08:46:38.527Z,80.06
2023-02-19T08:49:06.802Z,80.16
2023-02-19T08:51:35.370Z,80.44
2023-02-19T08:54:04.564Z,80.44
2023-02-19T08:56:32.834Z,80.86
2023-02-19T08:59:01.130Z,80.28
2023-02-19T09:01:29.558Z,80.38
2023-02-19T09:03:59.249Z,80.30
2023-02-19T09:06:27.643Z,79.65
2023-02-19T09:08:56.154Z,79.60
2023-02-19T09:11:24.407Z,79.76
2023-02-19T09:13:52.616Z,79.14
2023-02-19T09:16:20.902Z,77.82
2023-02-19T09:18:49.115Z,77.58
2023-02-19T09:21:17.323Z,76.15
2023-02-19T09:23:45.611Z,75.49
2023-02-19T09:26:14.162Z,74.64
2023-02-19T09:28:42.500Z,74.13
2023-02-19T09:31:14.088Z,74.10
2023-02-19T09:33:46.684Z,72.02
2023-02-19T09:36:16.360Z,70.30
2023-02-19T09:38:45.512Z,68.61
2023-02-19T09:41:31.380Z,67.84
2023-02-19T09:44:01.989Z,66.95
2023-02-19T09:46:47.618Z,65.94
2023-02-19T09:49:19.885Z,63.81
2023-02-19T09:51:58.151Z,61.75
2023-02-19T09:54:31.944Z,59.35
2023-02-19T09:57:02.431Z,60.53
2023-02-19T09:59:39.989Z,61.20
2023-02-19T10:02:30.957Z,59.96
2023-02-19T10:05:00.020Z,60.42
2023-02-19T10:07:39.481Z,59.01
2023-02-19T10:10:30.222Z,57.76
2023-02-19T10:13:13.280Z,55.71
2023-02-19T10:15:50.012Z,56.32
2023-02-19T10:18:28.945Z,53.01
2023-02-19T10:20:58.256Z,51.66
2023-02-19T10:23:26.790Z,52.54
2023-02-19T10:25:59.294Z,50.58
2023-02-19T10:28:31.009Z,49.42
2023-02-19T10:31:03.273Z,48.31
2023-02-19T10:33:31.537Z,47.89
2023-02-19T10:36:06.258Z,48.83
2023-02-19T10:38:38.724Z,47.16
2023-02-19T10:41:14.450Z,47.64
2023-02-19T10:43:50.821Z,47.36
2023-02-19T10:46:32.344Z,45.48
2023-02-19T10:49:05.051Z,45.20
2023-02-19T10:51:39.630Z,44.30
2023-02-19T10:54:18.316Z,41.00
2023-02-19T10:56:47.310Z,38.54
2023-02-19T10:59:26.552Z,38.90
2023-02-19T11:01:59.926Z,39.29
2023-02-19T11:04:34.233Z,39.49
2023-02-19T11:07:17.777Z,39.46
2023-02-19T11:09:49.850Z,40.56
2023-02-19T11:12:27.342Z,39.56
2023-02-19T11:14:55.766Z,38.49
2023-02-19T11:17:26.664Z,39.65
2023-02-19T11:20:02.566Z,39.21
2023-02-19T11:22:49.282Z,37.91
2023-02-19T11:25:17.895Z,38.78
2023-02-19T11:28:09.738Z,39.02
2023-02-19T11:30:45.980Z,40.13
2023-02-19T11:33:34.362Z,40.80
2023-02-19T11:36:23.936Z,40.42
2023-02-19T11:38:52.208Z,39.46
2023-02-19T11:41:26.165Z,38.54
2023-02-19T11:44:15.246Z,38.84
2023-02-19T11:46:58.575Z,38.35
2023-02-19T11:50:03.231Z,37.82
2023-02-19T11:52:40.656Z,38.21
2023-02-19T11:55:42.275Z,38.22
2023-02-19T11:58:13.292Z,37.50
2023-02-19T12:01:00.900Z,37.54
2023-02-19T12:03:53.249Z,38.26
2023-02-19T12:06:36.504Z,38.79
2023-02-19T12:09:39.530Z,38.30
2023-02-19T12:12:50.452Z,38.08
2023-02-19T12:15:27.087Z,37.51
2023-02-19T12:18:25.637Z,37.41
2023-02-19T12:20:53.764Z,38.22
2023-02-19T12:24:02.459Z,37.25
2023-02-19T12:26:39.215Z,36.00
2023-02-19T12:29:29.186Z,36.19
2023-02-19T12:32:13.381Z,36.29
2023-02-19T12:34:47.688Z,36.88
2023-02-19T12:37:34.404Z,36.97
2023-02-19T12:40:25.571Z,35.99
2023-02-19T12:43:02.542Z,35.29
2023-02-19T12:45:43.034Z,35.53
2023-02-19T12:48:32.710Z,35.25
2023-02-19T12:51:16.102Z,35.99
2023-02-19T12:54:02.663Z,35.06
2023-02-19T12:56:39.415Z,34.04
2023-02-19T12:59:20.724Z,34.62
2023-02-19T13:02:10.112Z,34.95
2023-02-19T13:04:50.219Z,35.16
2023-02-19T13:07:31.360Z,34.95
2023-02-19T13:10:12.903Z,35.24
2023-02-19T13:12:44.631Z,35.02
2023-02-19T13:15:17.934Z,34.67
2023-02-19T13:17:53.063Z,32.85
2023-02-19T13:20:42.527Z,30.47
2023-02-19T13:23:39.428Z,30.63
2023-02-19T13:26:16.419Z,30.11
2023-02-19T13:28:59.677Z,30.75
2023-02-19T13:31:46.941Z,31.86
2023-02-19T13:34:24.440Z,30.52
2023-02-19T13:36:54.574Z,29.29
2023-02-19T13:39:23.713Z,29.33
2023-02-19T13:41:56.607Z,29.25
2023-02-19T13:44:27.963Z,31.87
2023-02-19T13:46:57.404Z,32.17
2023-02-19T13:49:28.510Z,34.48
2023-02-19T13:52:01.305Z,35.95
2023-02-19T13:54:40.402Z,36.19
2023-02-19T13:57:23.936Z,34.63
2023-02-19T13:59:57.980Z,32.31
2023-02-19T14:02:34.344Z,31.84
2023-02-19T14:05:09.625Z,31.52
2023-02-19T14:07:49.441Z,30.76
2023-02-19T14:10:42.608Z,28.86
2023-02-19T14:13:11.056Z,29.39
2023-02-19T14:15:44.504Z,29.59
2023-02-19T14:18:45.165Z,29.22
2023-02-19T14:21:38.178Z,28.67
2023-02-19T14:24:13.541Z,27.77
2023-02-19T14:26:42.569Z,28.47
2023-02-19T14:29:16.644Z,29.09
2023-02-19T14:31:47.140Z,29.60
2023-02-19T14:34:23.002Z,30.27
2023-02-19T14:36:59.101Z,31.25
2023-02-19T14:39:34.407Z,31.65
2023-02-19T14:42:07.725Z,32.08
2023-02-19T14:44:49.312Z,32.18
2023-02-19T14:47:22.214Z,32.97
2023-02-19T14:49:50.633Z,32.33
2023-02-19T14:52:28.547Z,32.60
2023-02-19T14:55:02.477Z,32.87
2023-02-19T14:57:32.949Z,33.88
2023-02-19T15:00:05.157Z,33.51
2023-02-19T15:02:43.317Z,34.69
2023-02-19T15:05:23.842Z,35.74
2023-02-19T15:07:55.484Z,36.15
2023-02-19T15:10:24.951Z,36.36
2023-02-19T15:13:00.567Z,36.06
2023-02-19T15:15:36.772Z,35.87
2023-02-19T15:18:05.920Z,36.15
2023-02-19T15:20:37.299Z,36.85
2023-02-19T15:23:07.671Z,38.11
2023-02-19T15:25:40.021Z,39.66
2023-02-19T15:28:29.976Z,40.93
2023-02-19T15:30:58.641Z,42.83
2023-02-19T15:33:28.351Z,44.42
2023-02-19T15:36:02.102Z,45.29
2023-02-19T15:38:30.713Z,46.26
2023-02-19T15:40:59.766Z,46.23
2023-02-19T15:43:38.389Z,46.87
2023-02-19T15:46:19.912Z,47.35
2023-02-19T15:49:16.070Z,47.67
2023-02-19T15:51:54.945Z,47.54
2023-02-19T15:54:29.038Z,47.66
2023-02-19T15:57:04.621Z,47.38
2023-02-19T15:59:42.937Z,47.58
2023-02-19T16:02:15.682Z,48.07
2023-02-19T16:04:45.662Z,48.84
2023-02-19T16:07:34.433Z,48.96
2023-02-19T16:10:20.574Z,49.73
2023-02-19T16:13:00.199Z,49.12
2023-02-19T16:15:31.401Z,50.08
2023-02-19T16:18:00.428Z,50.68
2023-02-19T16:20:32.788Z,50.67
2023-02-19T16:23:04.640Z,50.93
2023-02-19T16:25:44.330Z,51.84
2023-02-19T16:28:25.965Z,51.98
2023-02-19T16:31:04.658Z,52.41
2023-02-19T16:33:49.161Z,52.06
2023-02-19T16:36:22.613Z,52.60
2023-02-19T16:39:03.472Z,52.69
2023-02-19T16:41:31.659Z,52.46
2023-02-19T16:44:06.718Z,52.64
2023-02-19T16:46:35.018Z,52.41
2023-02-19T16:49:03.595Z,52.79
2023-02-19T16:51:32.102Z,53.12
2023-02-19T16:54:00.371Z,53.42
2023-02-19T16:56:28.995Z,53.14
2023-02-19T16:58:58.018Z,53.46
2023-02-19T17:01:27.321Z,53.65
2023-02-19T17:04:02.871Z,53.87
2023-02-19T17:06:32.986Z,54.19
2023-02-19T17:09:01.439Z,54.32
2023-02-19T17:11:30.098Z,54.25
2023-02-19T17:13:58.577Z,54.51
2023-02-19T17:16:32.208Z,54.90
2023-02-19T17:19:00.826Z,55.05
2023-02-19T17:21:32.244Z,55.45
2023-02-19T17:24:01.084Z,55.53
2023-02-19T17:26:32.167Z,56.03
2023-02-19T17:29:04.346Z,56.05
2023-02-19T17:31:34.219Z,56.53
2023-02-19T17:34:02.511Z,56.68
2023-02-19T17:36:32.599Z,57.42
2023-02-19T17:39:04.579Z,57.86
2023-02-19T17:41:33.269Z,58.14
2023-02-19T17:44:01.674Z,58.25
2023-02-19T17:46:30.507Z,58.47
2023-02-19T17:48:58.853Z,58.80
2023-02-19T17:51:27.301Z,58.68
2023-02-19T17:53:55.568Z,58.87
2023-02-19T17:56:27.081Z,58.75
2023-02-19T17:58:57.134Z,58.70
2023-02-19T18:01:26.272Z,58.57
2023-02-19T18:03:54.704Z,58.58
2023-02-19T18:06:23.842Z,58.50
2023-02-19T18:08:53.841Z,58.77
2023-02-19T18:11:23.070Z,58.66
2023-02-19T18:13:52.616Z,58.67
2023-02-19T18:16:22.149Z,59.29
2023-02-19T18:18:50.883Z,59.84
2023-02-19T18:21:19.243Z,59.88
2023-02-19T18:23:48.540Z,60.54
2023-02-19T18:26:21.700Z,60.56
2023-02-19T18:28:50.115Z,60.84
2023-02-19T18:31:18.840Z,61.25
2023-02-19T18:33:47.360Z,61.19
2023-02-19T18:36:15.824Z,60.94
2023-02-19T18:38:44.794Z,61.27
2023-02-19T18:41:14.411Z,61.47
2023-02-19T18:43:43.679Z,61.36
2023-02-19T18:46:12.724Z,61.71
2023-02-19T18:48:43.305Z,61.99
2023-02-19T18:51:12.477Z,62.21
2023-02-19T18:53:43.261Z,61.87
2023-02-19T18:56:11.625Z,62.45
2023-02-19T18:58:39.957Z,62.40
2023-02-19T19:01:08.622Z,62.69
2023-02-19T19:03:37.232Z,63.00
2023-02-19T19:06:05.746Z,62.82
2023-02-19T19:08:34.038Z,63.14
2023-02-19T19:11:02.497Z,63.68
2023-02-19T19:13:30.900Z,63.58
2023-02-19T19:15:59.442Z,63.63
2023-02-19T19:18:27.990Z,63.41
2023-02-19T19:21:01.764Z,63.44
2023-02-19T19:23:30.077Z,63.42
2023-02-19T19:25:58.274Z,63.30
2023-02-19T19:28:26.574Z,63.84
2023-02-19T19:30:54.943Z,63.79
2023-02-19T19:33:23.417Z,63.75
2023-02-19T19:35:51.688Z,64.12
2023-02-19T19:38:20.262Z,63.82
2023-02-19T19:40:48.435Z,64.00
2023-02-19T19:43:16.612Z,63.77
2023-02-19T19:45:44.792Z,64.43
2023-02-19T19:48:13.368Z,64.61
2023-02-19T19:50:41.831Z,64.65
2023-02-19T19:53:10.378Z,64.90
2023-02-19T19:55:38.880Z,64.74
2023-02-19T19:58:07.401Z,64.85
2023-02-19T20:00:35.949Z,64.69
2023-02-19T20:03:04.506Z,64.85
2023-02-19T20:05:33.091Z,65.12
2023-02-19T20:08:01.736Z,65.09
2023-02-19T20:10:30.354Z,65.23
2023-02-19T20:12:58.555Z,65.73
2023-02-19T20:15:26.965Z,65.81
2023-02-19T20:17:55.350Z,65.75
2023-02-19T20:20:24.853Z,66.00
2023-02-19T20:22:54.084Z,66.41
2023-02-19T20:25:24.883Z,66.73
2023-02-19T20:27:53.652Z,67.65
2023-02-19T20:30:23.985Z,68.09
2023-02-19T20:32:53.712Z,69.34
2023-02-19T20:35:22.214Z,71.01
2023-02-19T20:37:50.463Z,72.14
2023-02-19T20:40:19.834Z,73.73
2023-02-19T20:42:48.290Z,74.04
2023-02-19T20:45:16.902Z,75.12
2023-02-19T20:47:45.220Z,75.73
2023-02-19T20:50:13.713Z,77.55
2023-02-19T20:52:41.934Z,77.17
2023-02-19T20:55:10.116Z,76.92
2023-02-19T20:57:38.689Z,77.49
2023-02-19T21:00:08.478Z,77.65
2023-02-19T21:02:37.939Z,77.65
2023-02-19T21:05:06.882Z,77.97
2023-02-19T21:07:35.252Z,78.31
2023-02-19T21:10:03.724Z,77.91
2023-02-19T21:12:33.705Z,78.05
2023-02-19T21:15:02.328Z,78.35
2023-02-19T21:17:30.920Z,78.28
2023-02-19T21:19:59.578Z,78.30
2023-02-19T21:22:28.299Z,78.60
2023-02-19T21:24:56.694Z,78.67
2023-02-19T21:27:24.999Z,78.41
2023-02-19T21:29:53.342Z,78.46
2023-02-19T21:32:21.810Z,78.36
2023-02-19T21:34:50.287Z,78.42
2023-02-19T21:37:18.849Z,78.45
2023-02-19T21:39:47.270Z,78.39
2023-02-19T21:42:15.720Z,78.25
2023-02-19T21:44:43.996Z,77.77
2023-02-19T21:47:15.274Z,78.41
2023-02-19T21:49:43.796Z,78.39
2023-02-19T21:52:12.341Z,78.49
2023-02-19T21:54:40.627Z,78.49
2023-02-19T21:57:09.660Z,78.41
2023-02-19T21:59:37.950Z,78.60
2023-02-19T22:02:07.063Z,78.71
2023-02-19T22:04:35.670Z,78.73
2023-02-19T22:07:03.821Z,78.83
2023-02-19T22:09:32.162Z,78.87
2023-02-19T22:12:00.407Z,78.64
2023-02-19T22:14:28.835Z,78.92
2023-02-19T22:16:57.062Z,78.87
2023-02-19T22:19:25.361Z,79.48
2023-02-19T22:21:53.564Z,79.65
2023-02-19T22:24:22.350Z,79.66
2023-02-19T22:26:55.205Z,79.65
2023-02-19T22:29:24.173Z,79.54
2023-02-19T22:31:53.212Z,79.65
2023-02-19T22:34:22.224Z,79.56
2023-02-19T22:36:50.682Z,79.91
2023-02-19T22:39:24.798Z,80.07
2023-02-19T22:41:53.681Z,80.29
2023-02-19T22:44:21.937Z,80.44
2023-02-19T22:46:53.568Z,80.89
2023-02-19T22:49:23.292Z,82.37
2023-02-19T22:52:01.300Z,83.38
2023-02-19T22:54:29.759Z,84.44
2023-02-19T22:56:58.090Z,84.73
2023-02-19T22:59:26.400Z,84.47
2023-02-19T23:01:54.704Z,85.35
2023-02-19T23:04:24.695Z,85.69
2023-02-19T23:06:53.494Z,85.40
2023-02-19T23:09:25.898Z,85.88
2023-02-19T23:12:03.918Z,85.40
2023-02-19T23:14:32.222Z,85.50
2023-02-19T23:17:00.671Z,85.32
2023-02-19T23:19:29.238Z,86.12
2023-02-19T23:21:57.582Z,85.97
2023-02-19T23:24:26.002Z,85.99
2023-02-19T23:26:54.504Z,86.36
2023-02-19T23:29:25.798Z,86.28
2023-02-19T23:31:54.745Z,86.38
2023-02-19T23:34:24.446Z,86.38
2023-02-19T23:36:54.071Z,86.64
2023-02-19T23:39:22.820Z,86.57
2023-02-19T23:41:55.980Z,86.65
2023-02-19T23:44:26.002Z,86.36
2023-02-19T23:46:54.318Z,86.49
2023-02-19T23:49:23.033Z,86.10
2023-02-19T23:51:51.975Z,86.38
2023-02-19T23:54:20.228Z,85.92
2023-02-19T23:56:48.415Z,86.49
2023-02-19T23:59:16.742Z,86.01
